Flight Track Log - Related Links

Times and Time Zones

All times are in EDT time to prevent confusion due to time zone crossing. See the GJS6221 flight status page for this flight to view local times or setup timezone preferences in your user account.

Time Position Orientation Groundspeed Altitude Reporting Facility
EDT Latitude Longitude Course Direction KTS MPH feet Rate Location/Type
Tue 02:25:27 PM 40.8269 -73.8783 344° North 168 193 1,900  Level New Center
Tue 02:26:27 PM 40.8767 -73.8969 344° North 213 245 4,300 2,200 Climbing New Center
Tue 02:27:27 PM 40.9058 -73.9725 297° West 278 320 6,300 2,400 Climbing New Center
Tue 02:28:27 PM 40.8381 -74.0131 204° Southwest 297 342 9,100 2,350 Climbing New Center
Tue 02:29:27 PM 40.7561 -74.0367 192° South 307 353 11,000 1,450 Climbing New Center
Tue 02:30:27 PM 40.6742 -74.0628 194° South 353 406 12,000 500 Climbing New Center
Tue 02:31:27 PM 40.5606 -74.0983 193° South 358 412 12,000 400 Level New Center
Tue 02:32:27 PM 40.4850 -74.1192 192° South 381 438 12,800 1,400 Climbing New Center
Tue 02:33:27 PM 40.3736 -74.1519 193° South 375 432 14,800 1,900 Climbing New Center
Tue 02:34:27 PM 40.2856 -74.1747 191° South 375 432 16,600 1,545 Climbing New Center
Tue 02:36:14 PM 40.0911 -74.2275 192° South 393 452 19,100 1,473 Climbing Washington Center
Tue 02:37:14 PM 39.9875 -74.2675 196° South 393 452 20,700 1,438 Climbing Washington Center
Tue 02:38:15 PM 39.9008 -74.3528 217° Southwest 388 447 22,000 1,339 Climbing Washington Center
Tue 02:39:15 PM 39.8100 -74.4408 217° Southwest 402 463 23,400 1,373 Climbing Washington Center
Tue 02:40:13 PM 39.7319 -74.5472 226° Southwest 407 468 24,700 1,436 Climbing Washington Center
Tue 02:41:12 PM 39.6514 -74.6508 225° Southwest 412 474 26,200 1,350 Climbing Washington Center
Tue 02:42:13 PM 39.5708 -74.7542 225° Southwest 412 474 27,400 1,230 Climbing Washington Center
Tue 02:43:14 PM 39.5008 -74.8467 226° Southwest 407 468 28,700 885 Climbing Washington Center
Tue 02:44:15 PM 39.4075 -74.9228 212° Southwest 407 468 29,200 645 Climbing Washington Center
Tue 02:45:15 PM 39.2994 -74.9800 202° Southwest 407 468 30,000 400 Climbing Washington Center
Tue 02:46:15 PM 39.1914 -75.0400 203° Southwest 412 474 30,000  Level Washington Center
Tue 02:47:14 PM 39.0894 -75.0969 203° Southwest 412 474 30,000  Level Washington Center
Tue 02:48:14 PM 38.9853 -75.1564 204° Southwest 417 480 30,000  Level Washington Center
Tue 02:49:15 PM 38.8836 -75.2131 203° Southwest 412 474 30,000  Level Washington Center
Tue 02:50:15 PM 38.7794 -75.2719 204° Southwest 412 474 30,000  Level Washington Center
Tue 02:51:13 PM 38.6775 -75.3311 204° Southwest 407 468 30,000  Level Washington Center
Tue 02:52:13 PM 38.5753 -75.3844 202° Southwest 407 468 30,000  Level Washington Center
Tue 02:53:13 PM 38.4733 -75.4406 203° Southwest 407 468 30,000  Level Washington Center
Tue 02:54:14 PM 38.3711 -75.4964 203° Southwest 407 468 30,000  Level Washington Center
Tue 02:55:14 PM 38.2669 -75.5811 213° Southwest 397 457 30,000  Level Washington Center
Tue 02:56:15 PM 38.1772 -75.6658 217° Southwest 403 464 30,000  Level Washington Center
Tue 02:57:13 PM 38.0875 -75.7528 217° Southwest 409 471 30,000  Level Washington Center
Tue 02:58:13 PM 37.9978 -75.8342 216° Southwest 409 471 30,000  Level Washington Center
Tue 02:59:14 PM 37.9078 -75.9181 216° Southwest 409 471 30,000  Level Washington Center
Tue 03:00:14 PM 37.8283 -75.9942 217° Southwest 409 471 30,000  Level Washington Center
Tue 03:01:15 PM 37.7300 -76.0906 218° Southwest 409 471 30,000  Level Washington Center
Tue 03:02:12 PM 37.6506 -76.1583 214° Southwest 409 471 30,000  Level Washington Center
Tue 03:03:13 PM 37.5603 -76.2414 216° Southwest 403 464 30,000  Level Washington Center
Tue 03:04:14 PM 37.4722 -76.3244 217° Southwest 403 464 30,000  Level Washington Center
Tue 03:05:15 PM 37.3819 -76.4047 215° Southwest 403 464 30,000  Level Washington Center
Tue 03:06:13 PM 37.2939 -76.4872 217° Southwest 403 464 30,000  Level Washington Center
Tue 03:07:14 PM 37.2036 -76.5669 215° Southwest 403 464 30,000  Level Washington Center
Tue 03:08:14 PM 37.1089 -76.6544 216° Southwest 403 464 30,000  Level Washington Center
Tue 03:09:15 PM 37.0206 -76.7364 217° Southwest 403 464 30,000  Level Washington Center
Tue 03:10:15 PM 36.9300 -76.8158 215° Southwest 403 464 30,000  Level Washington Center
Tue 03:11:13 PM 36.8417 -76.8972 216° Southwest 403 464 30,000  Level Washington Center
Tue 03:12:14 PM 36.7531 -76.9789 216° Southwest 403 464 30,000  Level Washington Center
Tue 03:13:14 PM 36.6644 -77.0600 216° Southwest 403 464 30,000  Level Washington Center
Tue 03:14:15 PM 36.5758 -77.1439 217° Southwest 403 464 30,000  Level Washington Center
Tue 03:15:13 PM 36.4869 -77.2272 217° Southwest 403 464 30,000  Level Washington Center
Tue 03:16:14 PM 36.4003 -77.3081 217° Southwest 408 470 30,000  Level Washington Center
Tue 03:17:15 PM 36.3178 -77.3861 217° Southwest 413 475 30,000  Level Washington Center
Tue 03:18:15 PM 36.2247 -77.4767 218° Southwest 408 470 30,000  Level Washington Center
Tue 03:19:13 PM 36.1336 -77.5594 216° Southwest 403 464 30,000  Level Washington Center
Tue 03:20:13 PM 36.0467 -77.6419 218° Southwest 403 464 30,000  Level Washington Center
Tue 03:21:14 PM 35.9556 -77.7217 215° Southwest 403 464 30,000  Level Washington Center
Tue 03:22:15 PM 35.8625 -77.7989 214° Southwest 403 464 30,000  Level Washington Center
Tue 03:23:13 PM 35.7672 -77.8703 211° Southwest 408 470 30,000  Level Washington Center
Tue 03:24:13 PM 35.6719 -77.9444 212° Southwest 408 470 30,000  Level Washington Center
Tue 03:25:13 PM 35.5764 -78.0181 212° Southwest 408 470 30,000  Level Washington Center
Tue 03:26:14 PM 35.4833 -78.0892 212° Southwest 413 475 30,000  Level Washington Center
Tue 03:27:14 PM 35.3856 -78.1653 212° Southwest 413 475 30,000  Level Washington Center
Tue 03:28:15 PM 35.2922 -78.2386 213° Southwest 413 475 30,000  Level Washington Center
Tue 03:29:13 PM 35.2158 -78.2997 213° Southwest 413 475 30,000  Level Washington Center
Tue 03:30:14 PM 35.1136 -78.3800 213° Southwest 413 475 30,000  Level Washington Center
Tue 03:31:15 PM 35.0181 -78.4528 212° Southwest 413 475 30,000  Level Washington Center
Tue 03:32:13 PM 34.9225 -78.5228 211° Southwest 413 475 30,000  Level Washington Center
Tue 03:34:14 PM 34.7256 -78.6767 213° Southwest 406 467 30,000  Level Jacksonville Center
Tue 03:35:14 PM 34.6339 -78.7444 211° Southwest 406 467 30,000  Level Jacksonville Center
Tue 03:36:14 PM 34.5403 -78.8169 213° Southwest 400 460 30,000  Level Jacksonville Center
Tue 03:37:14 PM 34.4589 -78.8811 213° Southwest 400 460 30,000  Level Jacksonville Center
Tue 03:38:14 PM 34.3675 -78.9533 213° Southwest 400 460 30,000  Level Jacksonville Center
Tue 03:39:14 PM 34.2756 -79.0203 211° Southwest 395 455 30,000 -50 Level Jacksonville Center
Tue 03:40:14 PM 34.1858 -79.0869 212° Southwest 395 455 29,900  Descending Jacksonville Center
Tue 03:41:14 PM 34.0942 -79.1564 212° Southwest 395 455 30,000 50 Climbing Jacksonville Center
Tue 03:42:14 PM 34.0131 -79.2425 221° Southwest 395 455 30,000  Level Jacksonville Center
Tue 03:43:14 PM 33.9322 -79.3283 221° Southwest 395 455 30,000 -450 Level Jacksonville Center
Tue 03:44:14 PM 33.8531 -79.4117 221° Southwest 395 455 29,100 -1,050 Descending Jacksonville Center
Tue 03:45:14 PM 33.7658 -79.5050 222° Southwest 382 440 27,900 -750 Descending Jacksonville Center
Tue 03:46:14 PM 33.6867 -79.5903 222° Southwest 387 445 27,600 -800 Descending Jacksonville Center
Tue 03:47:14 PM 33.6075 -79.6706 220° Southwest 387 445 26,300 -1,500 Descending Jacksonville Center
Tue 03:48:14 PM 33.5303 -79.7556 223° Southwest 387 445 24,600 -1,500 Descending Jacksonville Center
Tue 03:49:14 PM 33.4531 -79.8356 221° Southwest 382 440 23,300 -1,750 Descending Jacksonville Center
Tue 03:50:14 PM 33.3797 -79.9103 220° Southwest 377 434 21,100 -2,550 Descending Jacksonville Center
Tue 03:51:14 PM 33.3103 -79.9844 222° Southwest 359 413 18,200 -2,550 Descending Jacksonville Center
Tue 03:52:14 PM 33.2350 -80.0639 221° Southwest 359 413 16,000 -1,100 Descending Jacksonville Center
Tue 03:53:14 PM 33.1697 -80.1331 222° Southwest 354 407 16,000 4,000 Level Jacksonville Center
Tue 03:54:14 PM 33.1006 -80.2097 223° Southwest 336 387 24,000  Climbing Jacksonville Center
Tue 03:55:14 PM 33.0308 -80.2786 220° Southwest 338 389 16,000 -4,000 Descending Jacksonville Center
Tue 03:56:14 PM 32.9575 -80.3575 222° Southwest 351 404 16,000  Level Jacksonville Center
Tue 03:57:14 PM 32.8775 -80.4364 220° Southwest 369 425 16,000  Level Jacksonville Center
Tue 03:58:14 PM 32.8017 -80.5150 221° Southwest 374 430 16,000 -400 Level Jacksonville Center
Tue 03:59:14 PM 32.7258 -80.5911 220° Southwest 374 430 15,200 -850 Descending Jacksonville Center
Tue 04:00:14 PM 32.6542 -80.6669 222° Southwest 369 425 14,300 -900 Descending Jacksonville Center
Tue 04:01:14 PM 32.5825 -80.7403 221° Southwest 358 412 13,400 -900 Descending Jacksonville Center
Tue 04:02:14 PM 32.5233 -80.8206 229° Southwest 347 399 12,500 -900 Descending Jacksonville Center
Tue 04:03:14 PM 32.4722 -80.8981 232° Southwest 320 368 11,600 -900 Descending Jacksonville Center
Tue 04:04:14 PM 32.4278 -80.9803 237° Southwest 305 351 10,700 -950 Descending Jacksonville Center
Tue 04:05:14 PM 32.3706 -81.0675 232° Southwest 300 345 9,700 -950 Descending Jacksonville Center
Tue 04:06:14 PM 32.3217 -81.1497 235° Southwest 305 351 8,800 -1,400 Descending Jacksonville Center
Tue 04:07:14 PM 32.2831 -81.2364 242° Southwest 295 339 6,900 -1,800 Descending Jacksonville Center
Tue 04:08:14 PM 32.2528 -81.3106 244° Southwest 290 334 5,200 -1,300 Descending Jacksonville Center
Tue 04:09:14 PM 32.2242 -81.3772 243° Southwest 259 298 4,300 -1,500 Descending Jacksonville Center
Tue 04:10:14 PM 32.1789 -81.4125 213° Southwest 183 211 2,200 -2,100 Descending Jacksonville Center
Tue 04:12:00 PM 32.1293 -81.2091 North  Level Estimated
Tue 04:19:00 PM 32.1276 -81.2021 North  Level Estimated
Tue 04:20:00 PM 32.1276 -81.2021 North  Level Estimated
Tue 04:21:00 PM 32.1276 -81.2021 North  Level Estimated
Tue 04:22:00 PM 32.1276 -81.2021 North  Level Estimated
Tue 04:23:00 PM 32.1276 -81.2021 North  Level Estimated

Login

Don't have an account? Register now (free) for customized features, flight alerts, and more!